Flight Track Log - Related Links

Times and Time Zones

All times are in EDT time to prevent confusion due to time zone crossing. See the N343WA flight status page for this flight to view local times or setup timezone preferences in your user account.

Time Position Orientation Groundspeed Altitude Reporting Facility
EDT Latitude Longitude Course Direction KTS MPH feet Rate Location/Type
Mon 08:18:18 PM 26.1528 -81.6358 91° East 79 91 2,700  Level Miami Center
Mon 08:19:00 PM 26.0934 -81.6164 110° East  Level Estimated
Mon 08:19:18 PM 26.1450 -81.6125 110° East 79 91 3,100  Level Miami Center
Mon 08:20:00 PM 26.0963 -81.5878 84° East  Level FlightAware Approximate
Mon 08:20:18 PM 26.1333 -81.5911 121° Southeast 92 106 3,400  Level Miami Center
Mon 08:21:00 PM 26.0861 -81.5614 96° East  Level Estimated
Mon 08:21:18 PM 26.1214 -81.5722 125° Southeast 81 93 3,800  Level Miami Center
Mon 08:22:00 PM 26.0857 -81.5327 91° East  Level FlightAware Approximate
Mon 08:22:18 PM 26.1114 -81.5533 121° Southeast 75 86 4,200  Level Miami Center
Mon 08:23:00 PM 26.0853 -81.5040 91° East  Level FlightAware Approximate
Mon 08:23:18 PM 26.1017 -81.5344 120° Southeast 75 86 4,500  Level Miami Center
Mon 08:24:18 PM 26.0897 -81.5131 122° Southeast 75 86 4,700 250 Climbing Miami Center
Mon 08:25:18 PM 26.0758 -81.4964 133° Southeast 75 86 5,000 150 Climbing Miami Center
Mon 08:26:18 PM 26.0619 -81.4750 126° Southeast 75 86 5,000  Level Miami Center
Mon 08:27:18 PM 26.0522 -81.4517 115° Southeast 80 92 5,000  Level Miami Center
Mon 08:28:18 PM 26.0403 -81.4325 125° Southeast 80 92 5,000  Level Miami Center
Mon 08:29:18 PM 26.0325 -81.4092 110° East 80 92 5,000  Level Miami Center
Mon 08:30:18 PM 26.0269 -81.3836 104° East 80 92 5,000  Level Miami Center
Mon 08:31:18 PM 26.0194 -81.3625 112° Southeast 75 86 5,000  Level Miami Center
Mon 08:32:18 PM 26.0075 -81.3389 119° Southeast 75 86 5,000  Level Miami Center
Mon 08:33:18 PM 25.9978 -81.3178 117° Southeast 75 86 5,000  Level Miami Center
Mon 08:34:18 PM 25.9881 -81.2919 113° Southeast 75 86 5,000 50 Level Miami Center
Mon 08:35:18 PM 25.9783 -81.2686 115° Southeast 75 86 5,100  Climbing Miami Center
Mon 08:36:18 PM 25.9686 -81.2428 113° Southeast 80 92 5,000 -100 Descending Miami Center
Mon 08:37:18 PM 25.9547 -81.2192 123° Southeast 85 98 4,900 -55 Descending Miami Center
Mon 08:38:07 PM 25.9406 -81.2025 133° Southeast 84 97 4,900 65 Level Miami Center
Mon 08:38:50 PM 25.9350 -81.1861 111° Southeast 89 102 5,000 85 Climbing Miami Center
Mon 08:39:18 PM 25.9311 -81.1722 107° East 85 98 5,000  Level Miami Center
Mon 08:39:51 PM 25.9211 -81.1625 139° Southeast 88 101 5,000 -200 Level Miami Center
Mon 08:40:18 PM 25.9192 -81.1486 99° East 85 98 4,800 -393 Descending Miami Center
Mon 08:40:52 PM 25.9092 -81.1344 128° Southeast 92 106 4,600 -400 Descending Miami Center
Mon 08:41:18 PM 25.9075 -81.1206 98° East 85 98 4,400 -500 Descending Miami Center
Mon 08:41:52 PM 25.8975 -81.1086 133° Southeast 101 116 4,100 -400 Descending Miami Center
Mon 08:42:18 PM 25.8958 -81.0947 98° East 85 98 4,000 -436 Descending Miami Center
Mon 08:42:47 PM 25.8856 -81.0850 140° Southeast 97 112 3,700 -400 Descending Miami Center
Mon 08:43:18 PM 25.8842 -81.0667 95° East 91 105 3,600 -295 Descending Miami Center
Mon 08:43:48 PM 25.8739 -81.0592 147° Southeast 96 110 3,400 -300 Descending Miami Center
Mon 08:44:18 PM 25.8744 -81.0408 88° East 96 110 3,300 -327 Descending Miami Center
Mon 08:44:43 PM 25.8661 -81.0336 142° Southeast 92 106 3,100 -300 Descending Miami Center
Mon 08:45:18 PM 25.8625 -81.0172 104° East 96 110 3,000 -98 Descending Miami Center
Mon 08:45:44 PM 25.8564 -81.0078 126° Southeast 84 97 3,000 -200 Level Miami Center
Mon 08:46:18 PM 25.8528 -80.9917 104° East 96 110 2,800 -393 Descending Miami Center
Mon 08:46:45 PM 25.8447 -80.9844 141° Southeast 95 109 2,600 -400 Descending Miami Center
Mon 08:47:18 PM 25.8431 -80.9658 96° East 96 110 2,400 -364 Descending Miami Center
Mon 08:47:51 PM 25.8350 -80.9564 133° Southeast 94 108 2,200 -273 Descending Miami Center
Mon 08:48:46 PM 25.8231 -80.9328 119° Southeast 85 98 2,000 -148 Descending Miami Center
Mon 08:49:53 PM 25.8028 -80.9161 143° Southeast 79 91 1,900 -47 Descending Miami Center
Mon 08:50:54 PM 25.7864 -80.8994 138° Southeast 80 92 1,900  Level Miami Center
Mon 08:51:49 PM 25.7722 -80.8828 107° East 81 93 1,900 49 Level Miami Center
Mon 08:52:00 PM 25.7791 -80.8726 107° East  Level FlightAware Approximate
Mon 08:52:56 PM 25.7539 -80.8658 140° Southeast 84 97 2,000  Level Miami Center
Mon 08:53:51 PM 25.7397 -80.8469 130° Southeast 81 93 2,000 52 Level Miami Center
Mon 08:54:51 PM 25.7194 -80.8325 147° Southeast 83 96 2,100 50 Climbing Miami Center
Mon 08:55:52 PM 25.7075 -80.8114 122° Southeast 84 97 2,100  Level Miami Center
Mon 08:56:59 PM 25.6978 -80.7856 113° Southeast 87 100 2,100  Level Miami Center
Mon 08:58:06 PM 25.6858 -80.7578 116° Southeast 86 99 2,100  Level Miami Center
Mon 08:59:01 PM 25.6761 -80.7344 115° Southeast 84 97 2,100 -52 Level Miami Center
Mon 09:00:02 PM 25.6664 -80.7086 113° Southeast 86 99 2,000 -188 Descending Miami Center
Mon 09:01:09 PM 25.6567 -80.6806 111° Southeast 90 104 1,700 -198 Descending Miami Center
Mon 09:02:03 PM 25.6467 -80.6597 118° Southeast 89 102 1,600 -47 Descending Miami Center
Mon 09:03:16 PM 25.6347 -80.6317 115° Southeast 82 94 1,600  Level Miami Center
Mon 09:04:05 PM 25.6353 -80.6108 88° East 86 99 1,600  Level Miami Center
Mon 09:05:12 PM 25.6361 -80.5786 88° East 87 100 1,600  Level Miami Center
Mon 09:06:25 PM 25.6369 -80.5464 88° East 85 98 1,600  Level Miami Center
Mon 09:07:08 PM 25.6375 -80.5281 88° East 127 146 1,600 -346 Level Miami Center
Mon 09:08:09 PM 25.6381 -80.5003 89° East 85 98 1,000 -446 Descending Miami Center
Mon 09:09:09 PM 25.6469 -80.4775 67° East 87 100 700 -300 Descending Miami Center
Mon 09:11:00 PM 25.6367 -80.4318 104° East  Level FlightAware Approximate
Mon 09:18:00 PM 25.6333 -80.4167 110° East  Level FlightAware Approximate

Login

Don't have an account? Register now (free) for customized features, flight alerts, and more!